createdAt,value
2023-04-02T00:02:08.603Z,57.72
2023-04-02T00:03:44.969Z,58.31
2023-04-02T00:05:32.244Z,60.26
2023-04-02T00:07:17.816Z,62.68
2023-04-02T00:09:02.716Z,65.46
2023-04-02T00:10:36.629Z,64.57
2023-04-02T00:12:02.750Z,62.31
2023-04-02T00:13:51.102Z,60.17
2023-04-02T00:15:36.904Z,57.83
2023-04-02T00:17:24.675Z,58.04
2023-04-02T00:19:14.382Z,59.92
2023-04-02T00:20:59.469Z,62.46
2023-04-02T00:22:33.786Z,65.71
2023-04-02T00:24:19.137Z,65.34
2023-04-02T00:25:45.317Z,62.63
2023-04-02T00:27:07.465Z,60.49
2023-04-02T00:28:43.090Z,58.24
2023-04-02T00:30:36.710Z,57.50
2023-04-02T00:32:21.811Z,59.52
2023-04-02T00:34:15.497Z,61.92
2023-04-02T00:35:50.832Z,65.23
2023-04-02T00:37:38.233Z,65.06
2023-04-02T00:39:23.225Z,62.93
2023-04-02T00:40:56.532Z,60.46
2023-04-02T00:42:41.634Z,58.71
2023-04-02T00:44:05.736Z,57.68
2023-04-02T00:45:50.867Z,59.22
2023-04-02T00:47:24.720Z,61.26
2023-04-02T00:49:05.651Z,63.96
2023-04-02T00:50:34.589Z,65.32
2023-04-02T00:52:18.216Z,63.68
2023-04-02T00:54:08.238Z,60.82
2023-04-02T00:55:39.477Z,58.45
2023-04-02T00:57:20.489Z,57.29
2023-04-02T00:58:42.241Z,58.62
2023-04-02T01:00:21.183Z,60.75
2023-04-02T01:01:56.850Z,63.31
2023-04-02T01:03:30.445Z,65.57
2023-04-02T01:05:13.664Z,64.39
2023-04-02T01:06:55.080Z,61.31
2023-04-02T01:08:16.955Z,59.20
2023-04-02T01:09:54.526Z,57.47
2023-04-02T01:11:40.108Z,58.23
2023-04-02T01:13:25.193Z,60.27
2023-04-02T01:14:58.863Z,62.54
2023-04-02T01:16:44.808Z,64.85
2023-04-02T01:18:18.698Z,63.84
2023-04-02T01:20:05.617Z,61.58
2023-04-02T01:21:53.849Z,59.13
2023-04-02T01:23:30.237Z,57.07
2023-04-02T01:25:04.804Z,57.93
2023-04-02T01:26:49.447Z,59.95
2023-04-02T01:28:26.989Z,62.58
2023-04-02T01:30:12.092Z,65.20
2023-04-02T01:31:43.162Z,64.96
2023-04-02T01:33:17.004Z,62.32
2023-04-02T01:35:04.614Z,60.01
2023-04-02T01:36:40.891Z,57.90
2023-04-02T01:38:28.267Z,57.85
2023-04-02T01:40:01.625Z,59.91
2023-04-02T01:41:37.520Z,61.85
2023-04-02T01:43:12.956Z,64.31
2023-04-02T01:44:43.914Z,65.60
2023-04-02T01:46:29.045Z,63.64
2023-04-02T01:47:55.449Z,61.10
2023-04-02T01:49:48.977Z,58.83
2023-04-02T01:51:18.762Z,57.46
2023-04-02T01:52:52.156Z,58.64
2023-04-02T01:54:25.763Z,60.66
2023-04-02T01:55:59.491Z,62.92
2023-04-02T01:57:47.430Z,65.27
2023-04-02T01:59:28.355Z,64.17
2023-04-02T02:01:18.783Z,61.52
2023-04-02T02:03:12.130Z,59.31
2023-04-02T02:04:48.553Z,57.73
2023-04-02T02:06:22.248Z,58.39
2023-04-02T02:08:07.617Z,60.56
2023-04-02T02:09:41.141Z,63.16
2023-04-02T02:11:26.203Z,65.80
2023-04-02T02:13:15.516Z,64.61
2023-04-02T02:14:48.835Z,61.76
2023-04-02T02:16:34.096Z,59.59
2023-04-02T02:18:07.444Z,57.75
2023-04-02T02:19:40.901Z,58.39
2023-04-02T02:21:34.507Z,60.64
2023-04-02T02:25:07.586Z,65.40
2023-04-02T02:26:45.629Z,63.83
2023-04-02T02:28:21.502Z,61.21
2023-04-02T02:29:55.048Z,59.17
2023-04-02T02:31:29.264Z,57.70
2023-04-02T02:32:55.972Z,58.28
2023-04-02T02:34:20.753Z,59.98
2023-04-02T02:36:05.691Z,62.15
2023-04-02T02:37:42.411Z,65.03
2023-04-02T02:39:28.059Z,65.14
2023-04-02T02:40:52.136Z,62.88
2023-04-02T02:42:37.625Z,60.49
2023-04-02T02:44:22.765Z,58.12
2023-04-02T02:46:07.865Z,57.85
2023-04-02T02:47:48.915Z,60.09
2023-04-02T02:49:30.245Z,62.37
2023-04-02T02:51:14.558Z,65.24
2023-04-02T02:53:00.283Z,64.91
2023-04-02T02:54:35.900Z,62.53
2023-04-02T02:56:21.184Z,60.11
2023-04-02T02:58:07.075Z,57.81
2023-04-02T02:59:59.361Z,58.17
2023-04-02T03:01:53.710Z,60.50
2023-04-02T03:03:35.988Z,63.05
2023-04-02T03:05:22.103Z,65.33
2023-04-02T03:07:16.678Z,63.66
2023-04-02T03:09:10.402Z,60.85
2023-04-02T03:10:55.214Z,58.36
2023-04-02T03:12:36.504Z,57.61
2023-04-02T03:14:17.341Z,59.56
2023-04-02T03:15:53.334Z,61.77
2023-04-02T03:17:28.938Z,64.46
2023-04-02T03:19:13.860Z,64.80
2023-04-02T03:20:50.067Z,62.19
2023-04-02T03:22:43.412Z,59.82
2023-04-02T03:24:29.502Z,57.43
2023-04-02T03:26:16.781Z,58.60
2023-04-02T03:28:10.264Z,60.82
2023-04-02T03:29:44.165Z,63.62
2023-04-02T03:31:20.286Z,65.23
2023-04-02T03:32:54.409Z,63.69
2023-04-02T03:34:36.599Z,61.18
2023-04-02T03:36:21.652Z,58.53
2023-04-02T03:38:06.347Z,57.21
2023-04-02T03:39:42.233Z,59.03
2023-04-02T03:41:27.167Z,61.11
2023-04-02T03:43:00.127Z,64.13
2023-04-02T03:44:45.600Z,65.72
2023-04-02T03:46:21.967Z,63.54
2023-04-02T03:47:43.590Z,61.27
2023-04-02T03:49:13.069Z,59.15
2023-04-02T03:50:44.403Z,57.20
2023-04-02T03:52:20.081Z,57.84
2023-04-02T03:54:00.745Z,59.91
2023-04-02T03:55:34.629Z,62.13
2023-04-02T03:57:11.149Z,64.95
2023-04-02T03:58:56.644Z,64.84
2023-04-02T04:00:32.666Z,62.47
2023-04-02T04:02:17.816Z,59.77
2023-04-02T04:04:02.676Z,57.72
2023-04-02T04:05:36.308Z,57.78
2023-04-02T04:07:12.391Z,59.30
2023-04-02T04:09:06.672Z,61.41
2023-04-02T04:10:28.314Z,63.86
2023-04-02T04:12:09.065Z,65.26
2023-04-02T04:13:54.309Z,63.15
2023-04-02T04:15:35.585Z,60.52
2023-04-02T04:17:18.453Z,58.29
2023-04-02T04:19:01.018Z,57.63
2023-04-02T04:20:55.706Z,59.43
2023-04-02T04:22:51.837Z,62.25
2023-04-02T04:24:28.103Z,65.08
2023-04-02T04:26:06.141Z,64.58
2023-04-02T04:27:54.854Z,61.88
2023-04-02T04:29:49.704Z,59.25
2023-04-02T04:31:25.860Z,57.17
2023-04-02T04:33:13.448Z,58.14
2023-04-02T04:34:49.343Z,60.17
2023-04-02T04:36:39.436Z,62.98
2023-04-02T04:38:11.848Z,65.41
2023-04-02T04:40:06.661Z,64.01
2023-04-02T04:41:41.219Z,60.95
2023-04-02T04:43:10.533Z,58.48
2023-04-02T04:44:57.615Z,57.35
2023-04-02T04:46:42.655Z,58.95
2023-04-02T04:48:29.320Z,61.52
2023-04-02T04:50:14.465Z,64.87
2023-04-02T04:52:09.631Z,65.65
2023-04-02T04:53:43.312Z,62.94
2023-04-02T04:55:16.726Z,60.58
2023-04-02T04:56:41.956Z,58.68
2023-04-02T04:58:17.878Z,57.47
2023-04-02T04:59:53.925Z,58.66
2023-04-02T05:01:30.066Z,60.97
2023-04-02T05:03:14.501Z,63.47
2023-04-02T05:05:00.637Z,66.05
2023-04-02T05:06:54.098Z,64.21
2023-04-02T05:08:48.751Z,61.24
2023-04-02T05:10:33.719Z,58.43
2023-04-02T05:12:18.600Z,57.38
2023-04-02T05:14:11.909Z,59.09
2023-04-02T05:15:56.517Z,61.60
2023-04-02T05:17:41.953Z,64.96
2023-04-02T05:19:26.988Z,65.24
2023-04-02T05:21:12.550Z,62.86
2023-04-02T05:22:58.636Z,59.92
2023-04-02T05:24:37.740Z,57.49
2023-04-02T05:26:10.997Z,57.71
2023-04-02T05:28:00.502Z,59.69
2023-04-02T05:29:37.377Z,61.88
2023-04-02T05:31:23.803Z,64.65
2023-04-02T05:33:17.177Z,64.44
2023-04-02T05:34:53.210Z,61.57
2023-04-02T05:36:40.482Z,58.94
2023-04-02T05:38:25.456Z,57.40
2023-04-02T05:39:55.513Z,58.91
2023-04-02T05:41:49.691Z,60.78
2023-04-02T05:43:31.790Z,63.37
2023-04-02T05:45:17.473Z,65.35
2023-04-02T05:47:02.567Z,63.83
2023-04-02T05:48:47.667Z,61.11
2023-04-02T05:50:32.891Z,58.38
2023-04-02T05:52:08.781Z,57.57
2023-04-02T05:53:55.147Z,58.90
2023-04-02T05:55:39.992Z,61.27
2023-04-02T05:57:13.727Z,63.71
2023-04-02T05:58:58.779Z,65.56
2023-04-02T06:00:50.762Z,63.52
2023-04-02T06:02:44.669Z,60.49
2023-04-02T06:04:36.475Z,57.87
2023-04-02T06:06:22.126Z,57.92
2023-04-02T06:08:03.082Z,59.92
2023-04-02T06:09:56.453Z,62.62
2023-04-02T06:11:50.334Z,65.03
2023-04-02T06:13:25.835Z,63.46
2023-04-02T06:15:11.165Z,59.83
2023-04-02T06:16:56.643Z,57.33
2023-04-02T06:18:42.149Z,57.99
2023-04-02T06:20:18.395Z,60.04
2023-04-02T06:22:12.120Z,62.30
2023-04-02T06:23:52.987Z,65.24
2023-04-02T06:25:26.609Z,64.51
2023-04-02T06:27:08.582Z,61.98
2023-04-02T06:28:56.896Z,59.39
2023-04-02T06:30:46.104Z,57.23
2023-04-02T06:32:31.215Z,58.53
2023-04-02T06:34:16.619Z,60.91
2023-04-02T06:36:05.349Z,63.35
2023-04-02T06:38:00.376Z,65.10
2023-04-02T06:39:55.452Z,62.75
2023-04-02T06:41:36.489Z,60.11
2023-04-02T06:43:41.355Z,57.47
2023-04-02T06:45:24.088Z,57.79
2023-04-02T06:47:20.554Z,60.27
2023-04-02T06:49:11.883Z,62.85
2023-04-02T06:50:45.499Z,65.56
2023-04-02T06:52:21.311Z,64.59
2023-04-02T06:53:55.250Z,61.60
2023-04-02T06:55:48.802Z,59.24
2023-04-02T06:57:47.651Z,57.48
2023-04-02T06:59:17.555Z,58.79
2023-04-02T07:01:03.042Z,61.01
2023-04-02T07:02:35.857Z,63.20
2023-04-02T07:04:22.528Z,65.38
2023-04-02T07:06:10.912Z,63.99
2023-04-02T07:08:04.619Z,61.18
2023-04-02T07:09:34.027Z,58.16
2023-04-02T07:11:22.033Z,57.51
2023-04-02T07:12:53.985Z,59.01
2023-04-02T07:14:39.511Z,61.40
2023-04-02T07:16:13.156Z,64.50
2023-04-02T07:18:03.561Z,65.61
2023-04-02T07:19:52.234Z,63.22
2023-04-02T07:21:30.924Z,60.46
2023-04-02T07:23:04.348Z,58.01
2023-04-02T07:24:58.068Z,57.31
2023-04-02T07:26:42.925Z,59.62
2023-04-02T07:28:22.010Z,62.07
2023-04-02T07:30:15.996Z,64.94
2023-04-02T07:32:09.955Z,65.15
2023-04-02T07:34:04.700Z,61.83
2023-04-02T07:35:53.758Z,59.05
2023-04-02T07:37:47.269Z,57.51
2023-04-02T07:39:21.089Z,58.76
2023-04-02T07:40:55.620Z,60.88
2023-04-02T07:42:36.304Z,63.32
2023-04-02T07:44:21.592Z,65.63
2023-04-02T07:46:16.734Z,64.10
2023-04-02T07:48:01.703Z,60.61
2023-04-02T07:49:26.479Z,57.96
2023-04-02T07:51:07.255Z,56.78
2023-04-02T07:52:42.128Z,58.37
2023-04-02T07:54:15.115Z,60.27
2023-04-02T07:55:48.981Z,62.46
2023-04-02T07:57:29.402Z,65.03
2023-04-02T07:59:05.201Z,64.88
2023-04-02T08:00:27.157Z,62.41
2023-04-02T08:01:48.617Z,60.18
2023-04-02T08:03:34.653Z,57.68
2023-04-02T08:05:15.428Z,57.69
2023-04-02T08:06:56.661Z,59.40
2023-04-02T08:08:42.085Z,61.50
2023-04-02T08:10:17.621Z,64.31
2023-04-02T08:11:51.443Z,65.50
2023-04-02T08:13:32.009Z,63.51
2023-04-02T08:15:11.289Z,60.22
2023-04-02T08:16:52.039Z,57.64
2023-04-02T08:18:16.151Z,57.09
2023-04-02T08:19:55.010Z,58.73
2023-04-02T08:21:40.575Z,61.01
2023-04-02T08:23:27.274Z,63.88
2023-04-02T08:24:49.025Z,65.66
2023-04-02T08:26:23.005Z,63.64
2023-04-02T08:27:56.238Z,61.43
2023-04-02T08:29:37.584Z,58.71
2023-04-02T08:31:10.893Z,56.95
2023-04-02T08:32:46.922Z,57.92
2023-04-02T08:34:32.369Z,60.27
2023-04-02T08:36:17.437Z,63.09
2023-04-02T08:37:42.028Z,65.64
2023-04-02T08:39:17.771Z,64.74
2023-04-02T08:41:11.405Z,61.96
2023-04-02T08:42:56.312Z,59.14
2023-04-02T08:44:41.313Z,56.94
2023-04-02T08:46:26.491Z,58.35
2023-04-02T08:48:06.973Z,60.59
2023-04-02T08:49:41.157Z,63.08
2023-04-02T08:51:25.974Z,65.61
2023-04-02T08:53:11.062Z,64.54
2023-04-02T08:55:03.209Z,61.06
2023-04-02T08:56:44.418Z,57.96
2023-04-02T08:58:13.387Z,57.34
2023-04-02T08:59:47.859Z,59.06
2023-04-02T09:01:35.055Z,61.28
2023-04-02T09:03:11.113Z,63.99
2023-04-02T09:04:44.983Z,65.54
2023-04-02T09:06:29.726Z,63.68
2023-04-02T09:08:02.788Z,60.96
2023-04-02T09:09:35.997Z,58.79
2023-04-02T09:11:21.092Z,57.25
2023-04-02T09:13:05.789Z,58.60
2023-04-02T09:14:59.268Z,60.62
2023-04-02T09:16:22.567Z,62.36
2023-04-02T09:18:09.126Z,64.73
2023-04-02T09:19:56.428Z,64.47
2023-04-02T09:21:32.056Z,61.79
2023-04-02T09:23:16.461Z,58.40
2023-04-02T09:25:04.256Z,57.22
2023-04-02T09:26:49.780Z,58.84
2023-04-02T09:28:38.248Z,61.47
2023-04-02T09:30:15.179Z,63.93
2023-04-02T09:32:08.542Z,64.85
2023-04-02T09:33:44.939Z,62.57
2023-04-02T09:35:39.077Z,59.63
2023-04-02T09:37:13.698Z,57.02
2023-04-02T09:39:04.055Z,57.70
2023-04-02T09:40:37.461Z,59.72
2023-04-02T09:42:25.408Z,61.58
2023-04-02T09:44:10.361Z,64.51
2023-04-02T09:45:51.571Z,65.00
2023-04-02T09:47:37.295Z,62.64
2023-04-02T09:49:18.805Z,59.75
2023-04-02T09:50:54.353Z,57.18
2023-04-02T09:52:16.097Z,57.47
2023-04-02T09:54:01.641Z,59.02
2023-04-02T09:55:42.575Z,61.11
2023-04-02T09:57:23.808Z,63.40
2023-04-02T09:58:57.460Z,65.55
2023-04-02T10:00:39.198Z,64.69
2023-04-02T10:02:06.013Z,61.50
2023-04-02T10:03:51.877Z,58.55
2023-04-02T10:05:39.287Z,57.08
2023-04-02T10:07:26.676Z,58.79
2023-04-02T10:09:11.800Z,60.81
2023-04-02T10:10:56.612Z,63.49
2023-04-02T10:12:32.080Z,65.78
2023-04-02T10:14:17.450Z,63.92
2023-04-02T10:16:06.333Z,60.66
2023-04-02T10:17:39.623Z,58.70
2023-04-02T10:19:25.137Z,56.98
2023-04-02T10:21:10.612Z,58.53
2023-04-02T10:22:37.248Z,60.53
2023-04-02T10:24:10.896Z,62.86
2023-04-02T10:25:55.943Z,65.37
2023-04-02T10:27:37.532Z,64.40
2023-04-02T10:29:22.961Z,60.93
2023-04-02T10:30:48.914Z,57.99
2023-04-02T10:32:22.623Z,56.55
2023-04-02T10:33:55.806Z,57.60
2023-04-02T10:35:19.855Z,59.22
2023-04-02T10:36:53.561Z,61.26
2023-04-02T10:38:48.653Z,63.81
2023-04-02T10:40:23.999Z,64.99
2023-04-02T10:42:04.857Z,62.86
2023-04-02T10:43:45.640Z,59.88
2023-04-02T10:45:30.682Z,56.95
2023-04-02T10:47:15.300Z,57.15
2023-04-02T10:48:48.619Z,59.10
2023-04-02T10:50:34.737Z,61.02
2023-04-02T10:51:58.929Z,63.31
2023-04-02T10:53:43.409Z,65.57
2023-04-02T10:55:18.750Z,63.82
2023-04-02T10:56:53.194Z,60.41
2023-04-02T10:58:22.279Z,57.64
2023-04-02T11:00:08.042Z,56.52
2023-04-02T11:02:02.075Z,58.40
2023-04-02T11:03:43.200Z,60.69
2023-04-02T11:05:28.627Z,63.03
2023-04-02T11:07:14.613Z,65.56
2023-04-02T11:08:52.829Z,64.01
2023-04-02T11:10:19.602Z,61.37
2023-04-02T11:11:52.556Z,58.55
2023-04-02T11:13:42.648Z,56.39
2023-04-02T11:15:27.687Z,57.67
2023-04-02T11:16:51.929Z,59.57
2023-04-02T11:18:16.384Z,61.17
2023-04-02T11:20:02.327Z,62.94
2023-04-02T11:21:26.956Z,65.33
2023-04-02T11:23:11.879Z,64.59
2023-04-02T11:24:45.402Z,62.08
2023-04-02T11:26:18.538Z,59.19
2023-04-02T11:27:52.971Z,57.33
2023-04-02T11:29:39.083Z,57.39
2023-04-02T11:31:15.615Z,59.77
2023-04-02T11:32:47.224Z,61.11
2023-04-02T11:34:40.692Z,62.78
2023-04-02T11:36:25.465Z,65.20
2023-04-02T11:38:10.581Z,63.04
2023-04-02T11:39:34.650Z,60.05
2023-04-02T11:40:56.461Z,57.52
2023-04-02T11:42:41.450Z,56.88
2023-04-02T11:44:14.645Z,58.35
2023-04-02T11:45:59.593Z,60.44
2023-04-02T11:47:33.238Z,62.97
2023-04-02T11:49:18.261Z,65.33
2023-04-02T11:51:03.709Z,64.22
2023-04-02T11:52:37.465Z,61.18
2023-04-02T11:53:59.452Z,58.28
2023-04-02T11:55:35.558Z,56.85
2023-04-02T11:57:09.539Z,57.99
2023-04-02T11:58:33.712Z,60.07
2023-04-02T12:00:11.280Z,61.71
2023-04-02T12:01:45.619Z,63.86
2023-04-02T12:03:31.401Z,65.04
2023-04-02T12:04:55.227Z,62.60
2023-04-02T12:06:40.315Z,59.88
2023-04-02T12:08:25.312Z,56.49
2023-04-02T12:09:54.651Z,56.34
2023-04-02T12:11:30.570Z,57.72
2023-04-02T12:13:13.190Z,59.69
2023-04-02T12:14:49.426Z,61.85
2023-04-02T12:16:34.737Z,64.27
2023-04-02T12:18:15.318Z,64.32
2023-04-02T12:19:39.300Z,62.11
2023-04-02T12:21:12.495Z,60.00
2023-04-02T12:22:53.380Z,57.07
2023-04-02T12:24:46.918Z,57.16
2023-04-02T12:26:21.451Z,59.40
2023-04-02T12:28:02.475Z,60.96
2023-04-02T12:29:33.077Z,62.74
2023-04-02T12:31:18.440Z,65.33
2023-04-02T12:33:03.606Z,63.89
2023-04-02T12:34:40.433Z,61.51
2023-04-02T12:36:02.372Z,57.93
2023-04-02T12:37:47.213Z,56.46
2023-04-02T12:39:28.776Z,57.95
2023-04-02T12:40:55.055Z,60.03
2023-04-02T12:42:19.065Z,61.94
2023-04-02T12:43:54.656Z,64.47
2023-04-02T12:45:21.136Z,64.55
2023-04-02T12:46:54.858Z,62.02
2023-04-02T12:48:31.415Z,59.77
2023-04-02T12:50:12.340Z,57.32
2023-04-02T12:51:57.150Z,57.55
2023-04-02T12:53:18.769Z,58.53
2023-04-02T12:54:54.278Z,60.37
2023-04-02T12:56:18.349Z,62.07
2023-04-02T12:57:52.201Z,64.57
2023-04-02T12:59:25.485Z,64.70
2023-04-02T13:01:10.204Z,62.47
2023-04-02T13:02:50.883Z,59.99
2023-04-02T13:04:31.515Z,57.11
2023-04-02T13:05:56.096Z,57.06
2023-04-02T13:07:25.457Z,58.24
2023-04-02T13:08:59.054Z,60.22
2023-04-02T13:10:43.768Z,62.24
2023-04-02T13:12:19.192Z,64.48
2023-04-02T13:13:43.549Z,64.38
2023-04-02T13:15:19.413Z,62.50
2023-04-02T13:16:52.521Z,59.04
2023-04-02T13:18:22.049Z,57.14
2023-04-02T13:19:51.396Z,57.14
2023-04-02T13:21:32.440Z,59.12
2023-04-02T13:23:08.429Z,61.23
2023-04-02T13:24:53.664Z,63.17
2023-04-02T13:26:29.486Z,65.47
2023-04-02T13:28:02.968Z,64.50
2023-04-02T13:29:39.436Z,61.28
2023-04-02T13:31:24.628Z,58.65
2023-04-02T13:33:00.388Z,56.58
2023-04-02T13:34:34.118Z,57.76
2023-04-02T13:36:19.260Z,59.96
2023-04-02T13:37:53.208Z,62.33
2023-04-02T13:39:46.845Z,64.89
2023-04-02T13:41:22.411Z,64.94
2023-04-02T13:42:56.484Z,61.82
2023-04-02T13:44:25.291Z,59.90
2023-04-02T13:45:49.709Z,57.50
2023-04-02T13:47:26.142Z,57.00
2023-04-02T13:49:07.436Z,58.87
2023-04-02T13:50:41.670Z,61.07
2023-04-02T13:52:18.206Z,63.52
2023-04-02T13:53:42.293Z,65.47
2023-04-02T13:55:04.259Z,64.51
2023-04-02T13:56:38.547Z,62.24
2023-04-02T13:58:23.637Z,59.57
2023-04-02T14:00:13.196Z,57.12
2023-04-02T14:01:40.076Z,58.00
2023-04-02T14:03:11.466Z,59.82
2023-04-02T14:04:52.370Z,61.84
2023-04-02T14:06:25.617Z,64.93
2023-04-02T14:07:55.376Z,65.55
2023-04-02T14:09:17.902Z,63.65
2023-04-02T14:10:42.096Z,61.20
2023-04-02T14:12:06.066Z,59.39
2023-04-02T14:13:28.564Z,57.40
2023-04-02T14:15:02.286Z,57.19
2023-04-02T14:16:24.043Z,59.03
2023-04-02T14:17:55.598Z,61.02
2023-04-02T14:19:29.331Z,63.08
2023-04-02T14:21:05.566Z,65.47
2023-04-02T14:22:29.843Z,64.35
2023-04-02T14:24:07.836Z,61.92
2023-04-02T14:25:29.446Z,59.24
2023-04-02T14:26:55.965Z,57.42
2023-04-02T14:28:29.956Z,57.61
2023-04-02T14:29:55.348Z,59.20
2023-04-02T14:31:28.609Z,60.99
2023-04-02T14:32:53.693Z,63.67
2023-04-02T14:34:17.386Z,65.84
2023-04-02T14:35:46.811Z,64.91
2023-04-02T14:37:13.597Z,62.71
2023-04-02T14:38:40.615Z,60.49
2023-04-02T14:40:21.180Z,58.41
2023-04-02T14:42:05.733Z,57.16
2023-04-02T14:43:48.140Z,58.36
2023-04-02T14:45:33.182Z,60.97
2023-04-02T14:47:13.730Z,63.59
2023-04-02T14:48:54.346Z,65.75
2023-04-02T14:50:33.051Z,64.21
2023-04-02T14:51:59.677Z,61.58
2023-04-02T14:53:45.549Z,59.26
2023-04-02T14:55:31.214Z,57.19
2023-04-02T14:57:16.292Z,58.39
2023-04-02T14:58:57.680Z,60.55
2023-04-02T15:00:28.846Z,62.88
2023-04-02T15:02:09.626Z,65.35
2023-04-02T15:03:52.712Z,64.57
2023-04-02T15:05:26.697Z,61.38
2023-04-02T15:06:52.961Z,58.90
2023-04-02T15:08:27.131Z,57.12
2023-04-02T15:10:03.209Z,58.06
2023-04-02T15:11:38.554Z,60.11
2023-04-02T15:13:04.675Z,62.10
2023-04-02T15:14:38.047Z,64.46
2023-04-02T15:16:19.077Z,65.30
2023-04-02T15:17:54.938Z,62.78
2023-04-02T15:19:35.560Z,60.08
2023-04-02T15:21:16.001Z,57.43
2023-04-02T15:22:47.622Z,57.37
2023-04-02T15:24:21.707Z,59.08
2023-04-02T15:26:09.491Z,61.24
2023-04-02T15:27:33.542Z,63.49
2023-04-02T15:29:18.894Z,65.01
2023-04-02T15:31:11.697Z,62.85
2023-04-02T15:32:56.998Z,59.83
2023-04-02T15:34:42.254Z,56.69
2023-04-02T15:36:15.614Z,56.86
2023-04-02T15:37:51.869Z,58.98
2023-04-02T15:39:24.919Z,61.15
2023-04-02T15:41:15.020Z,63.54
2023-04-02T15:43:00.200Z,65.67
2023-04-02T15:44:33.530Z,63.64
2023-04-02T15:46:06.650Z,60.95
2023-04-02T15:47:39.847Z,58.84
2023-04-02T15:49:13.591Z,56.87
2023-04-02T15:50:40.975Z,57.81
2023-04-02T15:52:16.161Z,60.02
2023-04-02T15:54:01.921Z,62.14
2023-04-02T15:55:26.322Z,65.12
2023-04-02T15:57:06.772Z,65.47
2023-04-02T15:58:51.062Z,62.88
2023-04-02T16:00:22.565Z,60.20
2023-04-02T16:02:16.167Z,57.77
2023-04-02T16:04:05.781Z,57.42
2023-04-02T16:05:39.512Z,59.51
2023-04-02T16:07:01.172Z,61.28
2023-04-02T16:08:55.749Z,63.73
2023-04-02T16:10:37.810Z,65.76
2023-04-02T16:12:16.463Z,63.73
2023-04-02T16:13:57.264Z,60.80
2023-04-02T16:15:31.035Z,58.55
2023-04-02T16:17:17.561Z,57.06
2023-04-02T16:19:05.976Z,58.80
2023-04-02T16:21:02.577Z,61.52
2023-04-02T16:22:31.801Z,64.15
2023-04-02T16:24:02.662Z,65.78
2023-04-02T16:25:33.952Z,64.08
2023-04-02T16:27:18.485Z,61.43
2023-04-02T16:28:50.623Z,59.10
2023-04-02T16:30:24.182Z,57.23
2023-04-02T16:31:53.628Z,57.71
2023-04-02T16:33:18.046Z,59.52
2023-04-02T16:34:51.589Z,61.55
2023-04-02T16:36:23.085Z,64.29
2023-04-02T16:37:54.613Z,65.29
2023-04-02T16:39:34.992Z,63.29
2023-04-02T16:41:09.235Z,60.81
2023-04-02T16:42:50.583Z,58.14
2023-04-02T16:44:26.661Z,57.10
2023-04-02T16:46:11.910Z,58.85
2023-04-02T16:47:57.430Z,61.34
2023-04-02T16:49:32.984Z,64.27
2023-04-02T16:50:57.138Z,65.78
2023-04-02T16:52:28.490Z,64.28
2023-04-02T16:54:02.723Z,61.60
2023-04-02T16:55:28.931Z,59.51
2023-04-02T16:57:04.636Z,57.42
2023-04-02T16:58:49.993Z,57.74
2023-04-02T17:00:18.948Z,59.70
2023-04-02T17:01:59.747Z,61.94
2023-04-02T17:03:41.507Z,64.58
2023-04-02T17:05:32.582Z,65.17
2023-04-02T17:07:17.938Z,62.39
2023-04-02T17:09:03.908Z,59.68
2023-04-02T17:10:33.172Z,57.45
2023-04-02T17:11:59.404Z,57.63
2023-04-02T17:13:21.668Z,59.17
2023-04-02T17:15:26.674Z,61.41
2023-04-02T17:16:50.291Z,64.56
2023-04-02T17:18:26.681Z,65.62
2023-04-02T17:20:02.088Z,63.83
2023-04-02T17:21:38.051Z,60.66
2023-04-02T17:23:18.667Z,58.22
2023-04-02T17:25:12.249Z,57.28
2023-04-02T17:26:52.168Z,59.20
2023-04-02T17:28:37.289Z,61.68
2023-04-02T17:30:10.536Z,64.69
2023-04-02T17:31:41.948Z,65.47
2023-04-02T17:33:27.298Z,63.32
2023-04-02T17:34:51.839Z,60.78
2023-04-02T17:36:23.124Z,58.56
2023-04-02T17:37:54.899Z,57.17
2023-04-02T17:39:18.983Z,58.28
2023-04-02T17:40:42.861Z,60.16
2023-04-02T17:42:16.393Z,62.27
2023-04-02T17:43:38.544Z,65.05
2023-04-02T17:45:01.067Z,65.54
2023-04-02T17:46:41.774Z,63.64
2023-04-02T17:48:06.418Z,60.96
2023-04-02T17:49:49.697Z,58.98
2023-04-02T17:51:30.299Z,57.26
2023-04-02T17:52:56.047Z,58.61
2023-04-02T17:54:29.976Z,60.42
2023-04-02T17:56:14.809Z,62.94
2023-04-02T17:57:36.436Z,65.52
2023-04-02T17:58:58.376Z,65.09
2023-04-02T18:00:32.043Z,62.74
2023-04-02T18:02:05.074Z,60.36
2023-04-02T18:03:46.608Z,58.10
2023-04-02T18:05:08.325Z,57.29
2023-04-02T18:06:41.965Z,58.66
2023-04-02T18:08:27.507Z,60.79
2023-04-02T18:09:49.637Z,63.00
2023-04-02T18:11:11.246Z,65.44
2023-04-02T18:12:45.062Z,65.29
2023-04-02T18:14:09.448Z,63.16
2023-04-02T18:15:43.484Z,60.95
2023-04-02T18:17:17.276Z,58.40
2023-04-02T18:18:59.175Z,57.35
2023-04-02T18:20:46.223Z,59.09
2023-04-02T18:22:08.492Z,61.29
2023-04-02T18:23:42.113Z,63.32
2023-04-02T18:25:27.098Z,65.86
2023-04-02T18:27:00.792Z,64.44
2023-04-02T18:28:30.859Z,61.91
2023-04-02T18:30:00.758Z,59.67
2023-04-02T18:31:46.371Z,57.40
2023-04-02T18:33:31.705Z,58.09
2023-04-02T18:35:04.684Z,60.38
2023-04-02T18:36:53.229Z,62.67
2023-04-02T18:38:15.368Z,65.80
2023-04-02T18:39:44.903Z,65.45
2023-04-02T18:41:13.877Z,63.19
2023-04-02T18:42:35.789Z,61.05
2023-04-02T18:44:04.464Z,59.08
2023-04-02T18:45:27.172Z,57.38
2023-04-02T18:46:56.468Z,58.04
2023-04-02T18:48:30.187Z,59.71
2023-04-02T18:50:15.870Z,62.23
2023-04-02T18:51:49.265Z,65.31
2023-04-02T18:53:30.156Z,65.29
2023-04-02T18:55:06.923Z,62.96
2023-04-02T18:57:01.022Z,60.24
2023-04-02T18:58:51.221Z,57.59
2023-04-02T19:00:13.873Z,57.64
2023-04-02T19:01:35.573Z,59.24
2023-04-02T19:03:00.380Z,61.24
2023-04-02T19:04:34.101Z,63.23
2023-04-02T19:06:19.066Z,65.58
2023-04-02T19:07:43.113Z,64.12
2023-04-02T19:09:16.465Z,61.77
2023-04-02T19:10:37.992Z,59.38
2023-04-02T19:12:11.480Z,57.39
2023-04-02T19:13:48.331Z,57.63
2023-04-02T19:15:24.293Z,59.48
2023-04-02T19:17:17.821Z,62.00
2023-04-02T19:19:13.469Z,65.11
2023-04-02T19:20:54.972Z,64.39
2023-04-02T19:22:43.296Z,61.79
2023-04-02T19:24:37.101Z,58.79
2023-04-02T19:26:10.436Z,57.17
2023-04-02T19:28:00.680Z,58.51
2023-04-02T19:29:30.183Z,60.72
2023-04-02T19:31:04.400Z,62.78
2023-04-02T19:32:40.470Z,65.66
2023-04-02T19:34:17.279Z,64.48
2023-04-02T19:35:58.609Z,61.61
2023-04-02T19:37:32.679Z,58.71
2023-04-02T19:39:08.882Z,57.08
2023-04-02T19:40:42.801Z,58.09
2023-04-02T19:42:12.402Z,59.89
2023-04-02T19:43:45.959Z,61.93
2023-04-02T19:45:19.818Z,64.45
2023-04-02T19:46:55.978Z,65.25
2023-04-02T19:48:27.678Z,62.70
2023-04-02T19:50:04.676Z,60.31
2023-04-02T19:51:26.325Z,57.52
2023-04-02T19:52:59.513Z,57.06
2023-04-02T19:54:21.404Z,58.41
2023-04-02T19:56:02.733Z,60.37
2023-04-02T19:57:36.660Z,62.55
2023-04-02T19:59:21.939Z,65.19
2023-04-02T20:01:15.613Z,64.53
2023-04-02T20:03:00.631Z,61.25
2023-04-02T20:04:25.161Z,58.33
2023-04-02T20:06:09.359Z,56.70
2023-04-02T20:07:45.525Z,58.33
2023-04-02T20:09:21.048Z,60.12
2023-04-02T20:11:06.312Z,62.30
2023-04-02T20:12:51.401Z,64.79
2023-04-02T20:14:15.217Z,64.29
2023-04-02T20:16:03.712Z,61.34
2023-04-02T20:17:56.047Z,58.46
2023-04-02T20:19:32.820Z,56.84
2023-04-02T20:21:06.214Z,58.31
2023-04-02T20:22:35.176Z,60.26
2023-04-02T20:24:08.613Z,62.24
2023-04-02T20:25:34.839Z,64.85
2023-04-02T20:27:10.815Z,64.79
2023-04-02T20:28:57.941Z,61.95
2023-04-02T20:30:27.200Z,59.05
2023-04-02T20:32:00.963Z,57.10
2023-04-02T20:33:36.568Z,57.84
2023-04-02T20:35:08.981Z,59.52
2023-04-02T20:36:59.607Z,61.74
2023-04-02T20:38:53.646Z,64.73
2023-04-02T20:40:31.236Z,64.49
2023-04-02T20:42:00.907Z,61.83
2023-04-02T20:43:47.237Z,59.14
2023-04-02T20:45:41.661Z,56.83
2023-04-02T20:47:26.587Z,58.26
2023-04-02T20:49:11.594Z,60.44
2023-04-02T20:51:03.930Z,62.65
2023-04-02T20:52:44.762Z,65.51
2023-04-02T20:54:08.991Z,64.15
2023-04-02T20:55:55.679Z,61.11
2023-04-02T20:57:37.541Z,58.38
2023-04-02T20:59:22.746Z,56.62
2023-04-02T21:00:44.746Z,58.11
2023-04-02T21:02:06.056Z,59.82
2023-04-02T21:03:49.623Z,61.59
2023-04-02T21:05:11.418Z,64.04
2023-04-02T21:06:56.709Z,65.09
2023-04-02T21:08:21.132Z,62.93
2023-04-02T21:09:43.397Z,60.12
2023-04-02T21:11:19.171Z,57.53
2023-04-02T21:12:51.084Z,56.94